createdAt,value
2022-11-20T00:00:58.307Z,5.56
2022-11-20T00:03:25.390Z,5.54
2022-11-20T00:05:52.334Z,5.54
2022-11-20T00:08:19.341Z,5.52
2022-11-20T00:10:46.273Z,5.45
2022-11-20T00:13:13.339Z,5.26
2022-11-20T00:15:40.202Z,5.32
2022-11-20T00:18:07.214Z,5.29
2022-11-20T00:20:34.089Z,5.34
2022-11-20T00:23:01.062Z,5.38
2022-11-20T00:25:27.998Z,5.33
2022-11-20T00:27:55.040Z,5.35
2022-11-20T00:30:21.891Z,5.31
2022-11-20T00:32:48.914Z,5.29
2022-11-20T00:35:15.839Z,5.32
2022-11-20T00:37:43.590Z,5.30
2022-11-20T00:40:11.099Z,5.29
2022-11-20T00:42:38.112Z,5.30
2022-11-20T00:45:05.579Z,5.30
2022-11-20T00:47:32.564Z,5.29
2022-11-20T00:49:59.440Z,5.27
2022-11-20T00:52:26.373Z,5.32
2022-11-20T00:54:53.403Z,5.40
2022-11-20T00:57:20.420Z,5.31
2022-11-20T00:59:47.258Z,5.30
2022-11-20T01:02:16.629Z,5.30
2022-11-20T01:04:43.830Z,5.26
2022-11-20T01:07:11.885Z,5.21
2022-11-20T01:09:39.479Z,5.21
2022-11-20T01:12:06.521Z,5.21
2022-11-20T01:14:33.369Z,5.17
2022-11-20T01:17:00.460Z,5.14
2022-11-20T01:19:27.343Z,5.12
2022-11-20T01:21:55.340Z,5.14
2022-11-20T01:24:23.430Z,5.17
2022-11-20T01:26:51.903Z,5.14
2022-11-20T01:29:25.244Z,5.12
2022-11-20T01:31:53.690Z,5.03
2022-11-20T01:34:23.328Z,4.90
2022-11-20T01:36:51.361Z,4.92
2022-11-20T01:39:22.758Z,4.93
2022-11-20T01:42:10.593Z,4.92
2022-11-20T01:44:53.977Z,4.91
2022-11-20T01:47:30.699Z,4.91
2022-11-20T01:50:10.899Z,4.77
2022-11-20T01:52:52.380Z,4.71
2022-11-20T01:55:24.880Z,4.63
2022-11-20T01:57:52.362Z,4.61
2022-11-20T02:00:21.309Z,4.55
2022-11-20T02:03:10.248Z,4.46
2022-11-20T02:05:49.086Z,4.47
2022-11-20T02:08:16.978Z,4.40
2022-11-20T02:10:43.881Z,4.38
2022-11-20T02:13:29.779Z,4.35
2022-11-20T02:15:56.906Z,4.30
2022-11-20T02:18:25.021Z,4.30
2022-11-20T02:20:57.362Z,4.23
2022-11-20T02:23:41.077Z,4.24
2022-11-20T02:26:13.526Z,4.26
2022-11-20T02:28:40.860Z,4.30
2022-11-20T02:31:08.146Z,4.31
2022-11-20T02:33:35.139Z,4.31
2022-11-20T02:36:02.722Z,4.34
2022-11-20T02:38:29.742Z,4.32
2022-11-20T02:40:56.661Z,4.34
2022-11-20T02:43:24.466Z,4.41
2022-11-20T02:45:51.542Z,4.46
2022-11-20T02:48:18.522Z,4.43
2022-11-20T02:50:45.399Z,4.44
2022-11-20T02:53:12.892Z,4.49
2022-11-20T02:55:39.978Z,4.47
2022-11-20T02:58:07.019Z,4.46
2022-11-20T03:00:33.900Z,4.50
2022-11-20T03:03:00.943Z,4.54
2022-11-20T03:05:27.780Z,4.50
2022-11-20T03:07:54.779Z,4.51
2022-11-20T03:10:22.300Z,4.44
2022-11-20T03:12:56.875Z,4.36
2022-11-20T03:15:25.157Z,4.41
2022-11-20T03:17:56.124Z,4.42
2022-11-20T03:20:24.499Z,4.38
2022-11-20T03:22:51.444Z,4.33
2022-11-20T03:25:18.429Z,4.40
2022-11-20T03:27:45.419Z,4.42
2022-11-20T03:30:12.899Z,4.39
2022-11-20T03:32:59.901Z,4.39
2022-11-20T03:35:27.181Z,4.42
2022-11-20T03:37:54.060Z,4.39
2022-11-20T03:40:21.181Z,4.32
2022-11-20T03:42:48.063Z,4.20
2022-11-20T03:45:17.197Z,4.19
2022-11-20T03:47:44.863Z,4.16
2022-11-20T03:50:14.679Z,4.12
2022-11-20T03:52:42.253Z,4.11
2022-11-20T03:55:09.662Z,4.18
2022-11-20T03:57:36.783Z,4.19
2022-11-20T04:00:05.020Z,4.14
2022-11-20T04:02:32.950Z,4.15
2022-11-20T04:04:59.974Z,4.12
2022-11-20T04:07:27.047Z,4.12
2022-11-20T04:09:53.980Z,4.09
2022-11-20T04:12:20.951Z,4.07
2022-11-20T04:14:47.822Z,4.04
2022-11-20T04:17:14.761Z,4.06
2022-11-20T04:19:41.686Z,4.04
2022-11-20T04:22:09.651Z,4.08
2022-11-20T04:24:36.612Z,4.12
2022-11-20T04:27:03.617Z,4.08
2022-11-20T04:29:30.496Z,4.10
2022-11-20T04:31:58.356Z,4.13
2022-11-20T04:34:25.349Z,4.16
2022-11-20T04:36:52.289Z,4.09
2022-11-20T04:39:19.475Z,4.13
2022-11-20T04:41:46.681Z,4.18
2022-11-20T04:44:13.634Z,4.15
2022-11-20T04:46:43.421Z,4.12
2022-11-20T04:49:11.944Z,4.10
2022-11-20T04:51:39.020Z,4.09
2022-11-20T04:54:05.979Z,4.11
2022-11-20T04:56:33.100Z,4.12
2022-11-20T04:59:03.865Z,4.08
2022-11-20T05:01:31.331Z,4.03
2022-11-20T05:03:58.521Z,3.97
2022-11-20T05:06:25.536Z,3.94
2022-11-20T05:08:52.551Z,3.96
2022-11-20T05:11:23.024Z,3.98
2022-11-20T05:13:52.546Z,3.96
2022-11-20T05:16:22.309Z,3.96
2022-11-20T05:18:51.418Z,3.96
2022-11-20T05:21:18.789Z,3.95
2022-11-20T05:23:46.940Z,4.06
2022-11-20T05:26:16.516Z,4.03
2022-11-20T05:28:43.421Z,4.04
2022-11-20T05:31:13.203Z,3.98
2022-11-20T05:33:45.339Z,4.02
2022-11-20T05:36:14.301Z,4.11
2022-11-20T05:38:42.219Z,4.17
2022-11-20T05:41:18.939Z,4.18
2022-11-20T05:43:47.869Z,4.13
2022-11-20T05:46:16.946Z,4.09
2022-11-20T05:48:45.806Z,4.08
2022-11-20T05:51:16.890Z,4.00
2022-11-20T05:53:48.356Z,4.02
2022-11-20T05:56:19.103Z,4.06
2022-11-20T05:58:46.786Z,4.08
2022-11-20T06:01:19.987Z,4.11
2022-11-20T06:03:48.868Z,4.06
2022-11-20T06:06:17.100Z,4.02
2022-11-20T06:08:46.520Z,3.95
2022-11-20T06:11:15.429Z,3.91
2022-11-20T06:13:44.024Z,3.92
2022-11-20T06:16:12.996Z,3.92
2022-11-20T06:18:40.462Z,3.96
2022-11-20T06:21:10.871Z,4.00
2022-11-20T06:23:38.550Z,4.06
2022-11-20T06:26:08.320Z,4.06
2022-11-20T06:28:36.311Z,4.10
2022-11-20T06:31:04.290Z,4.16
2022-11-20T06:33:31.660Z,4.18
2022-11-20T06:36:01.791Z,4.13
2022-11-20T06:38:31.062Z,4.22
2022-11-20T06:40:58.069Z,4.24
2022-11-20T06:43:26.700Z,4.31
2022-11-20T06:45:54.890Z,4.31
2022-11-20T06:48:22.991Z,4.27
2022-11-20T06:50:50.030Z,4.24
2022-11-20T06:53:17.120Z,4.26
2022-11-20T06:55:46.296Z,4.24
2022-11-20T06:58:14.690Z,4.23
2022-11-20T07:00:42.043Z,4.21
2022-11-20T07:03:11.499Z,4.30
2022-11-20T07:05:39.525Z,4.33
2022-11-20T07:08:06.933Z,4.37
2022-11-20T07:10:34.120Z,4.37
2022-11-20T07:13:01.648Z,4.41
2022-11-20T07:15:28.689Z,4.42
2022-11-20T07:17:55.589Z,4.48
2022-11-20T07:20:22.541Z,4.41
2022-11-20T07:22:55.863Z,4.54
2022-11-20T07:25:24.550Z,4.53
2022-11-20T07:27:51.521Z,4.49
2022-11-20T07:30:19.181Z,4.54
2022-11-20T07:32:52.774Z,4.53
2022-11-20T07:35:20.700Z,4.49
2022-11-20T07:37:48.382Z,4.52
2022-11-20T07:40:15.978Z,4.51
2022-11-20T07:42:53.593Z,4.58
2022-11-20T07:45:23.132Z,4.63
2022-11-20T07:47:50.450Z,4.67
2022-11-20T07:50:18.054Z,4.77
2022-11-20T07:52:45.011Z,4.81
2022-11-20T07:55:12.974Z,4.82
2022-11-20T07:57:40.291Z,4.84
2022-11-20T08:00:12.309Z,4.95
2022-11-20T08:02:40.560Z,5.00
2022-11-20T08:05:08.660Z,4.99
2022-11-20T08:07:43.561Z,4.99
2022-11-20T08:10:13.850Z,5.00
2022-11-20T08:13:07.966Z,4.99
2022-11-20T08:15:35.627Z,5.01
2022-11-20T08:18:29.507Z,5.04
2022-11-20T08:20:50.821Z,5.02
2022-11-20T08:23:17.768Z,5.05
2022-11-20T08:25:51.065Z,5.06
2022-11-20T08:28:21.450Z,5.06
2022-11-20T08:30:49.422Z,5.14
2022-11-20T08:33:16.503Z,5.03
2022-11-20T08:35:44.329Z,5.00
2022-11-20T08:38:11.181Z,4.98
2022-11-20T08:40:38.269Z,5.04
2022-11-20T08:43:05.520Z,5.16
2022-11-20T08:45:34.719Z,5.21
2022-11-20T08:48:06.152Z,5.23
2022-11-20T08:50:34.123Z,5.21
2022-11-20T08:53:05.703Z,5.18
2022-11-20T08:55:32.935Z,5.34
2022-11-20T08:58:04.490Z,5.42
2022-11-20T09:00:31.591Z,5.49
2022-11-20T09:02:59.757Z,5.48
2022-11-20T09:05:27.722Z,5.49
2022-11-20T09:07:59.128Z,5.59
2022-11-20T09:10:27.105Z,5.62
2022-11-20T09:12:54.797Z,5.69
2022-11-20T09:15:22.388Z,5.66
2022-11-20T09:17:57.751Z,5.63
2022-11-20T09:20:25.180Z,5.68
2022-11-20T09:22:52.547Z,5.77
2022-11-20T09:25:19.895Z,5.71
2022-11-20T09:27:47.293Z,5.76
2022-11-20T09:30:15.986Z,5.82
2022-11-20T09:32:43.999Z,5.88
2022-11-20T09:35:11.923Z,5.92
2022-11-20T09:37:39.468Z,5.83
2022-11-20T09:40:07.538Z,5.83
2022-11-20T09:42:48.875Z,5.92
2022-11-20T09:45:28.429Z,5.93
2022-11-20T09:48:14.114Z,5.95
2022-11-20T09:51:28.705Z,6.06
2022-11-20T09:54:08.279Z,6.20
2022-11-20T09:56:40.501Z,6.29
2022-11-20T09:59:15.669Z,6.56
2022-11-20T10:01:44.382Z,6.73
2022-11-20T10:04:16.784Z,6.74
2022-11-20T10:07:30.159Z,6.92
2022-11-20T10:10:05.987Z,7.04
2022-11-20T10:13:34.804Z,7.22
2022-11-20T10:16:10.859Z,7.30
2022-11-20T10:19:26.852Z,7.26
2022-11-20T10:22:26.595Z,7.22
2022-11-20T10:24:58.935Z,7.30
2022-11-20T10:27:35.660Z,7.36
2022-11-20T10:30:10.351Z,7.39
2022-11-20T10:32:40.359Z,7.48
2022-11-20T10:35:29.226Z,7.38
2022-11-20T10:38:10.699Z,7.40
2022-11-20T10:40:47.917Z,7.38
2022-11-20T10:43:22.950Z,7.34
2022-11-20T10:45:54.541Z,7.43
2022-11-20T10:48:24.786Z,7.23
2022-11-20T10:51:15.296Z,7.34
2022-11-20T10:53:53.471Z,7.38
2022-11-20T10:56:30.767Z,7.48
2022-11-20T10:59:23.260Z,7.37
2022-11-20T11:01:50.576Z,7.15
2022-11-20T11:04:33.820Z,7.21
2022-11-20T11:07:11.785Z,7.22
2022-11-20T11:09:45.119Z,7.19
2022-11-20T11:12:12.802Z,7.14
2022-11-20T11:14:45.007Z,7.16
2022-11-20T11:17:28.527Z,7.12
2022-11-20T11:20:23.167Z,7.15
2022-11-20T11:22:58.847Z,7.04
2022-11-20T11:25:37.009Z,6.94
2022-11-20T11:28:06.608Z,7.05
2022-11-20T11:30:44.772Z,7.12
2022-11-20T11:33:19.426Z,7.04
2022-11-20T11:35:53.622Z,7.00
2022-11-20T11:38:28.578Z,7.07
2022-11-20T11:40:57.688Z,7.07
2022-11-20T11:43:47.249Z,7.05
2022-11-20T11:46:30.538Z,7.01
2022-11-20T11:48:59.088Z,6.97
2022-11-20T11:51:48.481Z,7.01
2022-11-20T11:54:24.667Z,7.07
2022-11-20T11:56:52.966Z,7.01
2022-11-20T11:59:53.466Z,7.05
2022-11-20T12:02:50.573Z,7.03
2022-11-20T12:05:44.370Z,7.06
2022-11-20T12:08:32.787Z,7.12
2022-11-20T12:11:12.658Z,7.21
2022-11-20T12:13:45.618Z,7.32
2022-11-20T12:16:15.729Z,7.39
2022-11-20T12:18:43.931Z,7.44
2022-11-20T12:21:37.268Z,7.42
2022-11-20T12:24:22.821Z,7.46
2022-11-20T12:27:33.399Z,7.55
2022-11-20T12:30:10.792Z,7.54
2022-11-20T12:32:58.091Z,7.76
2022-11-20T12:35:34.021Z,7.95
2022-11-20T12:38:04.316Z,8.04
2022-11-20T12:40:53.177Z,8.04
2022-11-20T12:43:52.751Z,8.07
2022-11-20T12:46:33.572Z,8.16
2022-11-20T12:49:30.656Z,8.28
2022-11-20T12:52:08.259Z,8.34
2022-11-20T12:55:04.217Z,8.48
2022-11-20T12:57:45.379Z,8.53
2022-11-20T13:00:21.795Z,8.54
2022-11-20T13:03:10.632Z,8.51
2022-11-20T13:05:55.962Z,8.50
2022-11-20T13:08:31.386Z,8.65
2022-11-20T13:11:13.631Z,8.63
2022-11-20T13:14:06.257Z,8.79
2022-11-20T13:16:42.254Z,9.01
2022-11-20T13:19:14.339Z,9.14
2022-11-20T13:21:46.001Z,9.30
2022-11-20T13:24:33.689Z,9.26
2022-11-20T13:27:07.380Z,9.14
2022-11-20T13:29:37.288Z,9.02
2022-11-20T13:32:13.848Z,8.94
2022-11-20T13:34:53.145Z,9.03
2022-11-20T13:37:38.465Z,9.02
2022-11-20T13:40:11.982Z,9.24
2022-11-20T13:42:55.596Z,9.37
2022-11-20T13:45:30.145Z,9.34
2022-11-20T13:47:58.988Z,9.29
2022-11-20T13:51:18.477Z,9.28
2022-11-20T13:54:03.787Z,9.29
2022-11-20T13:56:55.777Z,9.28
2022-11-20T13:59:41.661Z,9.23
2022-11-20T14:02:17.937Z,9.21
2022-11-20T14:04:50.496Z,9.21
2022-11-20T14:07:22.118Z,9.16
2022-11-20T14:09:56.818Z,9.15
2022-11-20T14:12:29.470Z,8.96
2022-11-20T14:14:57.986Z,8.97
2022-11-20T14:17:30.739Z,8.92
2022-11-20T14:20:13.777Z,8.78
2022-11-20T14:22:40.818Z,8.73
2022-11-20T14:25:24.267Z,8.67
2022-11-20T14:27:57.639Z,8.59
2022-11-20T14:30:35.138Z,8.50
2022-11-20T14:33:04.616Z,8.42
2022-11-20T14:35:36.416Z,8.23
2022-11-20T14:38:04.422Z,8.05
2022-11-20T14:40:36.716Z,7.81
2022-11-20T14:43:22.475Z,7.87
2022-11-20T14:46:04.829Z,7.72
2022-11-20T14:48:50.890Z,7.74
2022-11-20T14:51:36.347Z,7.75
2022-11-20T14:54:11.402Z,7.72
2022-11-20T14:56:38.819Z,7.77
2022-11-20T14:59:05.798Z,7.83
2022-11-20T15:01:34.829Z,7.87
2022-11-20T15:04:06.756Z,7.82
2022-11-20T15:06:33.926Z,7.78
2022-11-20T15:09:01.385Z,7.83
2022-11-20T15:11:35.314Z,7.89
2022-11-20T15:14:10.847Z,7.85
2022-11-20T15:16:38.046Z,7.94
2022-11-20T15:19:17.975Z,7.81
2022-11-20T15:21:45.115Z,7.74
2022-11-20T15:24:12.322Z,7.71
2022-11-20T15:26:43.624Z,7.64
2022-11-20T15:29:19.918Z,7.55
2022-11-20T15:31:46.986Z,7.51
2022-11-20T15:34:17.857Z,7.44
2022-11-20T15:36:46.708Z,7.48
2022-11-20T15:39:14.123Z,7.55
2022-11-20T15:41:41.689Z,7.56
2022-11-20T15:44:08.895Z,7.58
2022-11-20T15:46:41.070Z,7.69
2022-11-20T15:49:13.465Z,7.72
2022-11-20T15:51:47.627Z,7.77
2022-11-20T15:54:21.866Z,7.75
2022-11-20T15:56:50.976Z,7.85
2022-11-20T15:59:18.040Z,7.80
2022-11-20T16:01:45.447Z,7.87
2022-11-20T16:04:14.974Z,7.89
2022-11-20T16:06:42.281Z,7.85
2022-11-20T16:09:09.868Z,7.92
2022-11-20T16:11:40.155Z,7.90
2022-11-20T16:14:26.827Z,7.92
2022-11-20T16:16:54.032Z,7.96
2022-11-20T16:19:21.339Z,7.98
2022-11-20T16:21:48.746Z,8.00
2022-11-20T16:24:17.056Z,7.93
2022-11-20T16:26:45.176Z,7.97
2022-11-20T16:29:12.497Z,7.99
2022-11-20T16:31:40.021Z,7.98
2022-11-20T16:34:12.227Z,7.99
2022-11-20T16:36:45.032Z,7.98
2022-11-20T16:39:20.360Z,7.90
2022-11-20T16:41:50.351Z,7.97
2022-11-20T16:44:17.731Z,7.98
2022-11-20T16:46:44.900Z,7.84
2022-11-20T16:49:15.044Z,7.94
2022-11-20T16:51:43.380Z,7.95
2022-11-20T16:54:12.356Z,7.96
2022-11-20T16:56:42.635Z,7.94
2022-11-20T16:59:09.626Z,7.99
2022-11-20T17:01:39.265Z,8.01
2022-11-20T17:04:10.338Z,7.97
2022-11-20T17:06:41.063Z,8.01
2022-11-20T17:09:10.977Z,7.97
2022-11-20T17:11:39.256Z,7.98
2022-11-20T17:14:09.961Z,7.98
2022-11-20T17:16:38.581Z,8.00
2022-11-20T17:19:06.721Z,7.96
2022-11-20T17:21:38.662Z,7.93
2022-11-20T17:24:11.982Z,7.95
2022-11-20T17:26:42.473Z,7.96
2022-11-20T17:29:15.467Z,7.92
2022-11-20T17:31:43.509Z,7.96
2022-11-20T17:34:15.650Z,7.95
2022-11-20T17:36:45.990Z,8.02
2022-11-20T17:39:15.153Z,8.03
2022-11-20T17:41:42.498Z,8.04
2022-11-20T17:44:12.979Z,8.03
2022-11-20T17:46:40.740Z,7.99
2022-11-20T17:49:07.738Z,7.98
2022-11-20T17:51:35.778Z,8.01
2022-11-20T17:54:05.552Z,7.97
2022-11-20T17:56:52.558Z,7.82
2022-11-20T17:59:20.257Z,7.95
2022-11-20T18:01:47.684Z,7.97
2022-11-20T18:04:16.473Z,7.99
2022-11-20T18:06:46.494Z,7.98
2022-11-20T18:09:13.777Z,7.93
2022-11-20T18:11:43.173Z,7.99
2022-11-20T18:14:34.890Z,8.00
2022-11-20T18:17:08.924Z,7.97
2022-11-20T18:19:44.929Z,7.78
2022-11-20T18:22:23.628Z,8.01
2022-11-20T18:24:50.596Z,8.00
2022-11-20T18:27:20.258Z,8.03
2022-11-20T18:29:52.483Z,8.03
2022-11-20T18:32:22.840Z,7.98
2022-11-20T18:34:51.541Z,8.03
2022-11-20T18:37:19.241Z,8.01
2022-11-20T18:39:47.622Z,7.96
2022-11-20T18:42:36.159Z,7.97
2022-11-20T18:45:07.509Z,7.86
2022-11-20T18:47:41.316Z,7.89
2022-11-20T18:50:09.656Z,7.80
2022-11-20T18:52:47.740Z,7.90
2022-11-20T18:55:15.742Z,7.79
2022-11-20T18:57:43.303Z,7.86
2022-11-20T19:00:11.700Z,7.86
2022-11-20T19:02:42.712Z,7.82
2022-11-20T19:05:14.596Z,7.84
2022-11-20T19:07:43.217Z,7.75
2022-11-20T19:10:11.009Z,7.80
2022-11-20T19:12:38.365Z,7.85
2022-11-20T19:15:06.579Z,7.81
2022-11-20T19:17:34.822Z,7.86
2022-11-20T19:20:04.170Z,7.88
2022-11-20T19:22:31.547Z,7.89
2022-11-20T19:24:58.586Z,7.87
2022-11-20T19:27:25.621Z,7.87
2022-11-20T19:29:53.170Z,7.83
2022-11-20T19:32:20.811Z,7.77
2022-11-20T19:34:48.357Z,7.68
2022-11-20T19:37:18.978Z,7.51
2022-11-20T19:39:45.947Z,7.38
2022-11-20T19:42:13.066Z,7.33
2022-11-20T19:44:39.918Z,7.23
2022-11-20T19:47:12.984Z,7.19
2022-11-20T19:49:42.550Z,7.09
2022-11-20T19:52:09.976Z,6.93
2022-11-20T19:54:37.010Z,6.85
2022-11-20T19:57:04.984Z,6.80
2022-11-20T19:59:35.559Z,6.79
2022-11-20T20:02:04.102Z,6.83
2022-11-20T20:04:31.177Z,6.81
2022-11-20T20:06:58.127Z,6.81
2022-11-20T20:09:27.753Z,6.79
2022-11-20T20:11:55.702Z,6.76
2022-11-20T20:14:23.292Z,6.70
2022-11-20T20:16:53.443Z,6.65
2022-11-20T20:19:21.049Z,6.60
2022-11-20T20:21:49.789Z,6.52
2022-11-20T20:24:17.858Z,6.47
2022-11-20T20:26:44.817Z,6.38
2022-11-20T20:29:13.667Z,6.28
2022-11-20T20:31:42.505Z,6.12
2022-11-20T20:34:09.961Z,6.02
2022-11-20T20:36:37.301Z,5.90
2022-11-20T20:39:04.916Z,5.79
2022-11-20T20:41:33.753Z,5.65
2022-11-20T20:44:20.581Z,5.56
2022-11-20T20:46:48.266Z,5.43
2022-11-20T20:49:15.308Z,5.30
2022-11-20T20:51:43.033Z,5.16
2022-11-20T20:54:10.583Z,5.02
2022-11-20T20:56:41.012Z,4.95
2022-11-20T20:59:10.994Z,4.91
2022-11-20T21:01:39.180Z,4.91
2022-11-20T21:04:06.916Z,4.89
2022-11-20T21:06:34.670Z,5.02
2022-11-20T21:09:02.212Z,5.04
2022-11-20T21:11:29.678Z,5.01
2022-11-20T21:13:58.112Z,5.22
2022-11-20T21:16:25.725Z,5.20
2022-11-20T21:18:52.829Z,5.41
2022-11-20T21:21:38.609Z,5.53
2022-11-20T21:24:06.643Z,5.62
2022-11-20T21:26:33.811Z,5.66
2022-11-20T21:29:01.026Z,5.75
2022-11-20T21:31:30.376Z,5.76
2022-11-20T21:33:58.539Z,5.86
2022-11-20T21:36:30.980Z,5.93
2022-11-20T21:39:00.684Z,6.00
2022-11-20T21:41:33.083Z,6.02
2022-11-20T21:44:41.507Z,6.13
2022-11-20T21:46:51.409Z,6.12
2022-11-20T21:49:18.437Z,6.19
2022-11-20T21:51:45.766Z,6.23
2022-11-20T21:54:13.031Z,6.27
2022-11-20T21:56:40.076Z,6.28
2022-11-20T21:59:07.156Z,6.33
2022-11-20T22:01:34.960Z,6.34
2022-11-20T22:04:03.446Z,6.36
2022-11-20T22:06:33.368Z,6.39
2022-11-20T22:09:01.882Z,6.41
2022-11-20T22:11:29.223Z,6.45
2022-11-20T22:14:15.018Z,6.46
2022-11-20T22:16:42.339Z,6.50
2022-11-20T22:19:09.985Z,6.53
2022-11-20T22:21:39.959Z,6.51
2022-11-20T22:24:07.389Z,6.55
2022-11-20T22:26:40.295Z,6.58
2022-11-20T22:29:08.663Z,6.58
2022-11-20T22:31:35.623Z,6.78
2022-11-20T22:34:03.064Z,6.86
2022-11-20T22:36:31.831Z,6.65
2022-11-20T22:38:58.978Z,6.64
2022-11-20T22:41:28.419Z,6.50
2022-11-20T22:43:57.938Z,6.47
2022-11-20T22:46:26.264Z,6.45
2022-11-20T22:48:54.680Z,6.41
2022-11-20T22:51:24.259Z,6.60
2022-11-20T22:53:51.507Z,6.63
2022-11-20T22:56:19.221Z,6.60
2022-11-20T22:58:48.986Z,6.59
2022-11-20T23:01:17.486Z,6.37
2022-11-20T23:03:46.934Z,6.20
2022-11-20T23:06:16.607Z,6.14
2022-11-20T23:08:43.631Z,6.04
2022-11-20T23:11:15.755Z,6.01
2022-11-20T23:13:44.144Z,6.04
2022-11-20T23:16:12.394Z,6.01
2022-11-20T23:18:40.075Z,5.98
2022-11-20T23:21:11.965Z,5.94
2022-11-20T23:23:39.178Z,5.91
2022-11-20T23:26:09.213Z,5.87
2022-11-20T23:28:36.886Z,5.85
2022-11-20T23:31:04.941Z,5.87
2022-11-20T23:33:32.303Z,5.88
2022-11-20T23:35:59.183Z,5.87
2022-11-20T23:38:26.169Z,5.90
2022-11-20T23:40:53.207Z,5.90
2022-11-20T23:43:22.170Z,6.02
2022-11-20T23:45:57.638Z,6.19
2022-11-20T23:48:28.450Z,6.09
2022-11-20T23:50:55.890Z,5.86
2022-11-20T23:53:23.749Z,5.80
2022-11-20T23:55:56.164Z,5.78
2022-11-20T23:58:24.547Z,5.75
